Time;durP1;ratioP1;P1;durP2;ratioP2;P2;SDS_P1;SDS_P2;PMS_P1;PMS_P2;Temp;Humidity;BMP_temperature;BMP_pressure;BME280_temperature;BME280_humidity;BME280_pressure;Samples;Min_cycle;Max_cycle;Signal;HPM_P1;HPM_P2
2022/05/02 00:02:06;;;;;;;11.30;9.13;;;6.60;99.90;;;;;;4936068;28;20035;-92
2022/05/02 00:04:31;;;;;;;10.10;6.03;;;6.70;99.90;;;;;;4941892;29;20050;-92
2022/05/02 00:06:57;;;;;;;9.88;5.03;;;6.60;99.90;;;;;;4947034;28;20049;-92
2022/05/02 00:09:22;;;;;;;10.32;5.45;;;6.50;99.90;;;;;;4956686;28;20563;-95
2022/05/02 00:11:48;;;;;;;13.65;6.35;;;6.50;99.90;;;;;;4940081;28;20043;-92
2022/05/02 00:14:14;;;;;;;11.60;6.78;;;6.40;99.90;;;;;;4942393;28;20496;-93
2022/05/02 00:16:39;;;;;;;11.63;6.97;;;6.30;99.90;;;;;;4956546;28;20134;-93
2022/05/02 00:19:05;;;;;;;15.52;10.05;;;6.30;99.90;;;;;;4959020;28;20050;-92
2022/05/02 00:21:30;;;;;;;13.60;10.43;;;6.30;99.90;;;;;;4953574;28;20049;-92
2022/05/02 00:23:56;;;;;;;11.07;6.05;;;6.40;99.90;;;;;;4975107;28;20074;-92
2022/05/02 00:26:21;;;;;;;11.73;6.05;;;6.30;99.90;;;;;;4985188;28;20047;-94
2022/05/02 00:28:47;;;;;;;11.43;6.53;;;6.20;99.90;;;;;;4950846;29;20039;-94
2022/05/02 00:31:13;;;;;;;11.73;7.00;;;6.20;99.90;;;;;;4945037;28;20046;-93
2022/05/02 00:33:38;;;;;;;11.13;6.30;;;6.10;99.90;;;;;;4972431;28;20043;-93
2022/05/02 00:36:04;;;;;;;12.23;6.28;;;6.10;99.90;;;;;;4971139;28;20055;-94
2022/05/02 00:38:30;;;;;;;12.73;5.85;;;6.00;99.90;;;;;;4957754;28;20046;-93
2022/05/02 00:40:57;;;;;;;11.35;6.65;;;5.90;99.90;;;;;;4941061;28;20046;-92
2022/05/02 00:43:23;;;;;;;11.55;7.13;;;5.90;99.90;;;;;;4957292;28;20490;-94
2022/05/02 00:45:49;;;;;;;12.07;6.72;;;5.80;99.90;;;;;;4940313;28;20086;-93
2022/05/02 00:48:15;;;;;;;12.68;7.55;;;5.80;99.90;;;;;;4974258;28;20143;-94
2022/05/02 00:50:44;;;;;;;11.02;5.97;;;5.70;99.90;;;;;;4972953;28;20039;-92
2022/05/02 00:53:20;;;;;;;12.55;10.18;;;5.70;99.90;;;;;;4956497;28;20372;-94
2022/05/02 00:55:46;;;;;;;12.52;6.85;;;5.70;99.90;;;;;;4955666;28;20047;-93
2022/05/02 00:58:14;;;;;;;12.88;6.38;;;5.60;99.90;;;;;;4956355;28;20098;-93
2022/05/02 01:00:40;;;;;;;12.80;6.75;;;5.60;99.90;;;;;;4954532;28;20143;-92
2022/05/02 01:03:12;;;;;;;11.85;7.13;;;5.50;99.90;;;;;;4946715;28;20468;-92
2022/05/02 01:08:31;;;;;;;11.10;6.30;;;5.40;99.90;;;;;;4973237;28;20138;-95
2022/05/02 01:10:57;;;;;;;11.48;6.65;;;5.30;99.90;;;;;;4956179;28;20458;-93
2022/05/02 01:13:43;;;;;;;13.38;7.55;;;5.30;99.90;;;;;;4973084;28;20052;-93
2022/05/02 01:16:22;;;;;;;14.25;7.32;;;5.30;99.90;;;;;;4974623;28;20090;-93
2022/05/02 01:18:49;;;;;;;12.55;7.05;;;5.30;99.90;;;;;;4972245;28;20049;-94
2022/05/02 01:21:16;;;;;;;11.75;6.05;;;5.20;99.90;;;;;;4964165;28;20320;-93
2022/05/02 01:23:47;;;;;;;11.35;6.78;;;5.10;99.90;;;;;;4973491;28;20114;-94
2022/05/02 01:26:13;;;;;;;18.17;7.25;;;5.20;99.90;;;;;;4924847;29;20045;-94
2022/05/02 01:28:47;;;;;;;11.10;5.97;;;5.10;99.90;;;;;;4951733;28;20122;-94
2022/05/02 01:31:14;;;;;;;11.43;6.57;;;5.10;99.90;;;;;;4958071;28;20047;-93
2022/05/02 01:33:40;;;;;;;12.32;6.78;;;5.00;99.90;;;;;;4936437;29;20047;-95
2022/05/02 01:36:06;;;;;;;11.40;6.18;;;5.00;99.90;;;;;;4939104;28;20042;-93
2022/05/02 01:38:32;;;;;;;13.10;7.47;;;5.00;99.90;;;;;;4972894;28;20039;-93
2022/05/02 01:40:57;;;;;;;13.88;8.75;;;5.00;99.90;;;;;;4937539;28;20392;-94
2022/05/02 01:43:23;;;;;;;10.95;6.00;;;5.00;99.90;;;;;;4951194;29;20122;-92
2022/05/02 01:45:48;;;;;;;12.10;5.65;;;5.00;99.90;;;;;;4953537;29;20435;-94
2022/05/02 01:48:14;;;;;;;11.75;5.80;;;4.90;99.90;;;;;;4957644;28;20039;-94
2022/05/02 01:50:39;;;;;;;11.40;6.45;;;4.90;99.90;;;;;;4972541;28;20110;-94
2022/05/02 01:53:05;;;;;;;12.10;6.72;;;4.90;99.90;;;;;;4954017;28;20118;-94
2022/05/02 01:55:31;;;;;;;13.57;7.10;;;4.90;99.90;;;;;;4955372;28;20327;-93
2022/05/02 01:57:56;;;;;;;12.48;6.75;;;4.80;99.90;;;;;;4971257;28;20046;-93
2022/05/02 02:00:22;;;;;;;11.65;6.55;;;4.80;99.90;;;;;;4972687;28;20515;-93
2022/05/02 02:02:47;;;;;;;14.43;7.68;;;4.70;99.90;;;;;;4939138;28;20570;-94
2022/05/02 02:07:57;;;;;;;12.65;7.20;;;4.70;99.90;;;;;;4949272;28;20515;-94
2022/05/02 02:10:22;;;;;;;13.00;7.47;;;4.60;99.90;;;;;;4972998;28;20035;-95
2022/05/02 02:12:48;;;;;;;13.65;7.15;;;4.60;99.90;;;;;;4954019;28;20047;-94
2022/05/02 02:15:14;;;;;;;13.88;7.68;;;4.60;99.90;;;;;;4954950;28;20078;-93
2022/05/02 02:17:43;;;;;;;15.57;8.20;;;4.50;99.90;;;;;;4972054;28;20090;-94
2022/05/02 02:20:10;;;;;;;13.50;7.50;;;4.40;99.90;;;;;;4944500;29;20051;-93
2022/05/02 02:22:36;;;;;;;14.02;7.38;;;4.40;99.90;;;;;;4936236;29;20129;-93
2022/05/02 02:25:03;;;;;;;14.10;7.20;;;4.30;99.90;;;;;;4954515;28;20104;-93
2022/05/02 02:27:28;;;;;;;13.85;7.30;;;4.30;99.90;;;;;;4929250;29;20109;-94
2022/05/02 02:29:54;;;;;;;14.25;7.55;;;4.30;99.90;;;;;;4951262;28;20038;-92
2022/05/02 02:32:20;;;;;;;13.65;7.22;;;4.30;99.90;;;;;;4943256;28;20117;-92
2022/05/02 02:34:45;;;;;;;14.93;7.40;;;4.20;99.90;;;;;;4969109;28;20039;-92
2022/05/02 02:37:11;;;;;;;12.43;7.30;;;4.20;99.90;;;;;;4944843;28;20043;-93
2022/05/02 02:39:36;;;;;;;16.02;7.30;;;4.10;99.90;;;;;;4953805;28;20551;-94
2022/05/02 02:42:02;;;;;;;15.20;6.93;;;4.10;99.90;;;;;;4953755;28;20518;-94
2022/05/02 02:44:28;;;;;;;12.30;7.57;;;4.20;99.90;;;;;;4952710;28;20490;-93
2022/05/02 02:46:53;;;;;;;12.60;7.65;;;4.10;99.90;;;;;;4963443;28;20047;-93
2022/05/02 02:49:19;;;;;;;12.32;6.65;;;4.10;99.90;;;;;;4939711;29;20043;-93
2022/05/02 02:51:45;;;;;;;12.45;7.07;;;4.00;99.90;;;;;;4936594;28;20463;-94
2022/05/02 02:54:10;;;;;;;12.57;6.72;;;4.00;99.90;;;;;;4971395;28;20142;-94
2022/05/02 02:56:36;;;;;;;12.55;6.88;;;3.90;99.90;;;;;;4937888;28;20121;-94
2022/05/02 02:59:01;;;;;;;12.23;6.75;;;3.90;99.90;;;;;;4938281;29;20070;-94
2022/05/02 03:01:28;;;;;;;11.13;6.18;;;3.90;99.90;;;;;;4935892;29;20127;-93
2022/05/02 03:03:54;;;;;;;10.52;5.30;;;3.80;99.90;;;;;;4967880;28;20085;-94
2022/05/02 03:06:19;;;;;;;11.93;5.90;;;3.80;99.90;;;;;;4973873;28;20047;-94
2022/05/02 03:08:47;;;;;;;10.18;5.57;;;3.70;99.90;;;;;;4958560;28;20415;-96
2022/05/02 03:11:12;;;;;;;10.90;6.45;;;3.80;99.90;;;;;;4955327;28;20042;-95
2022/05/02 03:13:38;;;;;;;13.52;6.30;;;3.80;99.90;;;;;;4950560;28;20047;-94
2022/05/02 03:16:04;;;;;;;11.85;6.35;;;3.80;99.90;;;;;;4984833;28;20042;-95
2022/05/02 03:18:31;;;;;;;11.98;6.90;;;3.80;99.90;;;;;;4973949;28;20051;-94
2022/05/02 03:20:57;;;;;;;11.85;6.55;;;3.80;99.90;;;;;;4941029;28;20570;-94
2022/05/02 03:23:23;;;;;;;12.20;6.88;;;3.80;99.90;;;;;;4988485;28;20094;-94
2022/05/02 03:25:49;;;;;;;12.65;6.53;;;3.80;99.90;;;;;;4965887;28;20046;-94
2022/05/02 03:28:15;;;;;;;11.80;6.20;;;3.80;99.90;;;;;;4974843;28;20054;-96
2022/05/02 03:30:41;;;;;;;10.45;5.70;;;3.70;99.90;;;;;;4973805;28;20051;-96
2022/05/02 03:33:06;;;;;;;15.10;7.15;;;3.70;99.90;;;;;;4969768;28;20042;-95
2022/05/02 03:35:32;;;;;;;11.50;6.65;;;3.70;99.90;;;;;;4975796;28;20047;-93
2022/05/02 03:37:58;;;;;;;13.10;6.53;;;3.70;99.90;;;;;;4958965;28;20046;-90
2022/05/02 03:40:24;;;;;;;11.30;6.20;;;3.70;99.90;;;;;;4976437;28;20047;-89
2022/05/02 03:42:49;;;;;;;11.07;5.63;;;3.60;99.90;;;;;;4961351;28;20381;-88
2022/05/02 03:45:15;;;;;;;12.55;7.13;;;3.60;99.90;;;;;;4970518;28;20050;-88
2022/05/02 03:47:40;;;;;;;12.50;6.65;;;3.60;99.90;;;;;;4969591;28;20125;-89
2022/05/02 03:50:07;;;;;;;12.80;6.78;;;3.60;99.90;;;;;;4936613;28;20038;-89
2022/05/02 03:52:32;;;;;;;13.20;7.05;;;3.50;99.90;;;;;;4951588;28;20059;-89
2022/05/02 03:54:58;;;;;;;11.68;6.75;;;3.50;99.90;;;;;;4949044;28;20042;-90
2022/05/02 03:57:23;;;;;;;11.85;6.00;;;3.50;99.90;;;;;;4956020;28;20415;-89
2022/05/02 03:59:49;;;;;;;11.82;6.25;;;3.50;99.90;;;;;;4952564;28;20126;-90
2022/05/02 04:02:14;;;;;;;13.68;7.07;;;3.50;99.90;;;;;;4938845;28;20046;-88
2022/05/02 04:04:40;;;;;;;11.20;6.32;;;3.50;99.90;;;;;;4948752;29;20043;-88
2022/05/02 04:07:07;;;;;;;11.77;6.80;;;3.40;99.90;;;;;;4953701;28;20071;-88
2022/05/02 04:09:32;;;;;;;13.00;7.10;;;3.40;99.90;;;;;;4955566;28;20482;-88
2022/05/02 04:11:58;;;;;;;12.40;6.70;;;3.40;99.90;;;;;;4937995;28;20134;-88
2022/05/02 04:14:23;;;;;;;13.93;6.75;;;3.30;99.90;;;;;;4939579;28;20081;-89
2022/05/02 04:16:50;;;;;;;13.70;7.80;;;3.40;99.90;;;;;;4972618;28;20041;-90
2022/05/02 04:19:16;;;;;;;13.90;7.72;;;3.30;99.90;;;;;;4944397;29;20407;-89
2022/05/02 04:21:42;;;;;;;14.23;7.82;;;3.30;99.90;;;;;;4952707;29;20141;-89
2022/05/02 04:24:08;;;;;;;14.13;7.40;;;3.30;99.90;;;;;;4936306;29;20098;-89
2022/05/02 04:26:34;;;;;;;14.60;7.93;;;3.30;99.90;;;;;;4953193;28;20043;-88
2022/05/02 04:29:00;;;;;;;14.80;8.57;;;3.30;99.90;;;;;;4968189;28;20054;-89
2022/05/02 04:31:26;;;;;;;14.75;8.68;;;3.30;99.90;;;;;;4940499;29;20043;-88
2022/05/02 04:33:51;;;;;;;14.95;8.02;;;3.30;99.90;;;;;;4953028;29;20561;-89
2022/05/02 04:36:17;;;;;;;18.20;8.30;;;3.40;99.90;;;;;;4936799;28;20043;-89
2022/05/02 04:38:43;;;;;;;16.13;8.32;;;3.40;99.90;;;;;;4955236;28;20058;-89
2022/05/02 04:41:11;;;;;;;16.05;8.90;;;3.50;99.90;;;;;;4959841;28;20404;-88
2022/05/02 04:43:37;;;;;;;16.02;9.15;;;3.50;99.90;;;;;;4953058;28;20043;-88
2022/05/02 04:46:02;;;;;;;14.88;8.95;;;3.60;99.90;;;;;;4935671;29;20051;-89
2022/05/02 04:48:28;;;;;;;14.10;8.52;;;3.60;99.90;;;;;;4942471;28;20480;-89
2022/05/02 04:50:54;;;;;;;14.68;8.85;;;3.70;99.90;;;;;;4938926;28;20049;-88
2022/05/02 04:53:19;;;;;;;16.98;10.10;;;3.80;99.90;;;;;;4971168;28;20042;-89
2022/05/02 04:55:45;;;;;;;15.05;8.70;;;3.90;99.90;;;;;;4951559;28;20097;-88
2022/05/02 04:58:11;;;;;;;15.50;8.48;;;3.90;99.90;;;;;;4943546;29;20387;-88
2022/05/02 05:00:36;;;;;;;16.25;9.05;;;4.00;99.90;;;;;;4953577;28;20101;-91
2022/05/02 05:05:37;;;;;;;15.77;8.50;;;4.10;99.90;;;;;;5403400;23;20110;-89
2022/05/02 05:08:03;;;;;;;15.13;8.73;;;4.20;99.90;;;;;;4926200;29;20055;-89
2022/05/02 05:10:29;;;;;;;16.58;9.55;;;4.30;99.90;;;;;;5384319;23;20066;-94
2022/05/02 05:13:06;;;;;;;18.20;10.77;;;4.40;99.90;;;;;;4971729;28;20046;-89
2022/05/02 05:24:40;;;;;;;19.67;12.15;;;5.10;99.90;;;;;;5157535;23;20058;-96
2022/05/02 05:27:18;;;;;;;18.25;10.60;;;5.30;99.90;;;;;;4978822;28;20058;-94
2022/05/02 05:30:04;;;;;;;20.85;11.85;;;5.50;99.90;;;;;;4963148;28;20133;-94
2022/05/02 05:32:56;;;;;;;17.10;10.75;;;5.60;99.90;;;;;;5094873;23;20106;-95
2022/05/02 05:35:24;;;;;;;18.15;12.75;;;5.80;99.90;;;;;;4955282;29;20066;-93
2022/05/02 05:37:59;;;;;;;25.25;12.50;;;5.90;99.90;;;;;;4950149;28;20039;-94
2022/05/02 05:40:29;;;;;;;17.60;12.45;;;6.00;99.90;;;;;;4948162;29;20047;-93
2022/05/02 05:43:12;;;;;;;19.27;13.30;;;6.20;99.90;;;;;;4955901;28;20496;-93
2022/05/02 05:45:50;;;;;;;19.10;13.88;;;6.30;99.90;;;;;;4953126;29;20134;-94
2022/05/02 05:48:47;;;;;;;18.70;12.63;;;6.40;99.90;;;;;;4953720;29;20455;-95
2022/05/02 05:51:48;;;;;;;17.67;12.50;;;6.50;99.90;;;;;;4956070;29;20102;-93
2022/05/02 05:54:29;;;;;;;19.60;12.88;;;6.70;99.90;;;;;;4942509;29;20047;-96
2022/05/02 05:57:20;;;;;;;19.17;11.43;;;6.80;99.90;;;;;;4961896;28;20071;-93
2022/05/02 06:00:18;;;;;;;19.20;13.43;;;6.90;99.90;;;;;;4958446;29;20114;-94
2022/05/02 06:03:02;;;;;;;17.88;13.10;;;7.10;99.90;;;;;;4961007;29;20054;-96
2022/05/02 06:05:28;;;;;;;18.45;14.02;;;7.30;99.90;;;;;;4937240;29;20094;-94
2022/05/02 06:07:55;;;;;;;19.27;12.68;;;7.40;99.90;;;;;;4942149;29;20485;-96
2022/05/02 06:10:24;;;;;;;19.85;17.10;;;7.60;99.90;;;;;;4957545;28;20052;-96
2022/05/02 06:12:52;;;;;;;19.38;16.85;;;7.70;99.90;;;;;;4958650;28;20051;-95
2022/05/02 06:20:51;;;;;;;17.58;15.68;;;8.20;99.90;;;;;;4953204;28;20412;-89
2022/05/02 06:23:16;;;;;;;18.10;16.15;;;8.40;99.90;;;;;;4971575;28;20109;-87
2022/05/02 06:25:49;;;;;;;17.48;15.50;;;8.50;99.90;;;;;;4950622;28;20039;-87
2022/05/02 06:28:16;;;;;;;18.15;15.05;;;8.70;99.90;;;;;;4951524;29;20411;-93
2022/05/02 06:30:43;;;;;;;17.77;15.35;;;8.80;99.90;;;;;;4960750;29;20039;-95
2022/05/02 06:33:13;;;;;;;18.30;16.35;;;9.00;99.90;;;;;;4975813;28;20054;-94
2022/05/02 06:36:03;;;;;;;18.92;16.10;;;9.10;99.90;;;;;;4955848;29;20102;-96
2022/05/02 06:39:00;;;;;;;17.60;14.75;;;9.20;99.90;;;;;;4970972;28;20058;-92
2022/05/02 06:41:48;;;;;;;17.50;15.65;;;9.40;99.90;;;;;;4968699;29;20047;-88
2022/05/02 06:44:26;;;;;;;16.80;14.27;;;9.60;99.90;;;;;;4933842;29;20431;-87
2022/05/02 06:46:59;;;;;;;15.90;14.15;;;9.70;99.90;;;;;;4950609;29;20098;-92
2022/05/02 06:49:25;;;;;;;17.75;14.80;;;9.90;99.90;;;;;;4949876;29;20118;-90
2022/05/02 06:51:57;;;;;;;17.08;13.30;;;10.00;99.90;;;;;;4947720;28;20043;-88
2022/05/02 06:54:33;;;;;;;15.05;12.93;;;10.20;99.90;;;;;;4930856;29;20095;-88
2022/05/02 06:57:36;;;;;;;17.00;13.75;;;10.30;99.90;;;;;;4946408;29;20043;-89
2022/05/02 07:00:10;;;;;;;16.35;13.75;;;10.50;99.90;;;;;;4950276;28;20047;-89
2022/05/02 07:03:16;;;;;;;15.93;13.60;;;10.60;99.90;;;;;;4961084;28;20055;-86
2022/05/02 07:06:08;;;;;;;16.35;12.38;;;10.70;99.90;;;;;;4960340;28;20074;-88
2022/05/02 07:08:50;;;;;;;;;;;10.80;99.90;;;;;;4949811;29;20047;-88
2022/05/02 07:11:20;;;;;;;15.07;11.70;;;10.90;99.90;;;;;;4936711;29;19931;-86
2022/05/02 07:14:04;;;;;;;14.95;13.35;;;11.00;99.90;;;;;;4932389;29;20039;-87
2022/05/02 07:16:32;;;;;;;13.77;12.27;;;11.10;99.90;;;;;;4949717;28;20051;-88
2022/05/02 07:19:30;;;;;;;16.13;12.80;;;11.20;99.90;;;;;;4950640;28;20416;-86
2022/05/02 07:22:04;;;;;;;15.52;12.45;;;11.30;99.90;;;;;;4951714;28;20047;-86
2022/05/02 07:24:32;;;;;;;16.90;12.18;;;11.40;99.90;;;;;;4953219;28;20572;-86
2022/05/02 07:27:14;;;;;;;16.45;13.18;;;11.50;99.90;;;;;;4948247;28;20040;-84
2022/05/02 07:29:39;;;;;;;;;;;11.60;99.90;;;;;;4955080;28;20448;-95
2022/05/02 07:32:08;;;;;;;14.77;12.95;;;11.60;99.90;;;;;;4948162;29;19977;-88
2022/05/02 07:34:36;;;;;;;14.70;11.68;;;11.70;99.90;;;;;;4936555;29;20392;-85
2022/05/02 07:37:02;;;;;;;16.85;12.50;;;11.80;99.90;;;;;;4952486;29;20043;-87
2022/05/02 07:39:29;;;;;;;14.25;12.07;;;11.90;99.90;;;;;;4954075;29;20066;-87
2022/05/02 07:42:00;;;;;;;15.18;11.82;;;11.90;99.90;;;;;;4937310;29;20385;-91
2022/05/02 07:44:30;;;;;;;13.05;10.55;;;11.90;99.90;;;;;;4952266;28;20047;-89
2022/05/02 07:47:01;;;;;;;14.05;11.07;;;12.00;99.90;;;;;;4952353;28;20932;-87
2022/05/02 07:49:28;;;;;;;12.83;11.23;;;12.10;99.90;;;;;;4962908;28;20047;-83
2022/05/02 07:51:54;;;;;;;12.73;9.70;;;12.10;99.90;;;;;;4953473;28;20614;-83
2022/05/02 07:54:29;;;;;;;12.80;9.80;;;12.20;99.90;;;;;;4951871;29;20056;-84
2022/05/02 07:57:02;;;;;;;13.88;10.50;;;12.30;99.90;;;;;;4952190;29;20492;-84
2022/05/02 07:59:39;;;;;;;12.45;10.88;;;12.40;99.90;;;;;;4967184;28;20055;-86
2022/05/02 08:02:05;;;;;;;12.10;9.73;;;12.50;99.90;;;;;;4941299;29;20113;-87
2022/05/02 08:04:31;;;;;;;15.07;10.75;;;12.50;99.90;;;;;;4929826;29;20399;-91
2022/05/02 08:07:11;;;;;;;14.73;9.88;;;12.60;99.90;;;;;;4955177;28;20419;-84
2022/05/02 08:09:52;;;;;;;12.88;9.40;;;12.70;99.90;;;;;;4954062;28;20062;-87
2022/05/02 08:12:39;;;;;;;12.70;9.10;;;12.80;99.90;;;;;;4953242;29;20384;-86
2022/05/02 08:15:28;;;;;;;13.05;9.63;;;12.80;99.90;;;;;;4951055;29;20891;-84
2022/05/02 08:18:32;;;;;;;10.95;8.75;;;12.90;99.90;;;;;;4952303;29;20051;-83
2022/05/02 08:21:15;;;;;;;12.80;9.40;;;13.00;99.90;;;;;;4948223;28;20054;-84
2022/05/02 08:27:19;;;;;;;11.70;9.25;;;13.10;99.90;;;;;;4951878;28;20404;-84
2022/05/02 08:30:06;;;;;;;12.07;9.85;;;13.10;99.90;;;;;;4950819;29;20208;-84
2022/05/02 08:32:52;;;;;;;12.35;9.30;;;13.20;99.90;;;;;;4950940;28;20059;-84
2022/05/02 08:35:29;;;;;;;14.70;10.43;;;13.20;99.90;;;;;;4964155;28;20051;-85
2022/05/02 08:38:17;;;;;;;12.55;9.70;;;13.30;99.90;;;;;;4951795;28;20043;-84
2022/05/02 08:41:24;;;;;;;11.23;9.23;;;13.30;99.90;;;;;;4950652;29;20047;-85
2022/05/02 08:44:16;;;;;;;11.85;9.57;;;13.40;99.90;;;;;;4960754;28;20038;-84
2022/05/02 08:47:06;;;;;;;13.18;9.80;;;13.40;99.90;;;;;;4954123;28;20054;-84
2022/05/02 08:49:51;;;;;;;12.65;9.60;;;13.50;99.90;;;;;;4952394;28;20070;-85
2022/05/02 08:52:54;;;;;;;11.30;9.40;;;13.50;99.90;;;;;;4952176;29;20070;-84
2022/05/02 08:55:39;;;;;;;12.57;9.82;;;13.60;99.90;;;;;;4952990;29;20054;-84
2022/05/02 08:58:26;;;;;;;12.23;9.45;;;13.70;99.90;;;;;;4934718;28;20087;-85
2022/05/02 09:01:13;;;;;;;13.23;10.40;;;13.70;99.90;;;;;;4951596;29;20043;-84
2022/05/02 09:03:57;;;;;;;13.27;10.05;;;13.90;99.90;;;;;;4951194;29;20046;-85
2022/05/02 09:07:08;;;;;;;12.77;10.35;;;13.80;99.90;;;;;;4942588;28;20046;-83
2022/05/02 09:10:01;;;;;;;12.45;9.20;;;14.00;99.90;;;;;;4943207;29;20055;-85
2022/05/02 09:12:29;;;;;;;12.75;9.63;;;14.10;99.90;;;;;;4950743;28;20043;-83
2022/05/02 09:15:12;;;;;;;13.52;9.52;;;14.20;99.90;;;;;;4956985;28;20510;-84
2022/05/02 09:18:13;;;;;;;11.73;9.32;;;14.30;99.90;;;;;;4948885;28;20055;-84
2022/05/02 09:20:46;;;;;;;13.43;9.40;;;14.30;99.90;;;;;;4954140;28;20078;-85
2022/05/02 09:23:29;;;;;;;12.68;8.95;;;14.30;99.90;;;;;;4952766;28;20500;-85
2022/05/02 09:26:22;;;;;;;10.70;8.57;;;14.20;99.90;;;;;;4958031;28;20046;-86
2022/05/02 09:29:00;;;;;;;11.80;8.63;;;14.20;98.30;;;;;;4954271;28;20047;-85
2022/05/02 09:31:29;;;;;;;11.30;7.97;;;14.30;99.90;;;;;;4956166;28;20051;-85
2022/05/02 09:34:18;;;;;;;11.65;8.45;;;14.50;99.90;;;;;;4950852;28;20043;-85
2022/05/02 09:36:56;;;;;;;11.90;7.90;;;14.60;97.70;;;;;;4952090;28;20505;-86
2022/05/02 09:39:24;;;;;;;12.02;7.93;;;14.60;97.80;;;;;;4955018;28;20051;-87
2022/05/02 09:42:24;;;;;;;11.60;8.80;;;14.70;97.10;;;;;;4961746;28;20039;-86
2022/05/02 09:51:22;;;;;;;11.05;8.20;;;14.70;95.50;;;;;;4962741;28;20090;-86
2022/05/02 09:54:05;;;;;;;12.65;9.15;;;14.70;95.40;;;;;;4945614;28;20101;-87
2022/05/02 09:56:42;;;;;;;11.40;8.38;;;14.60;94.30;;;;;;4939554;28;20110;-88
2022/05/02 09:59:09;;;;;;;9.85;7.88;;;14.60;94.90;;;;;;4971911;28;20043;-86
2022/05/02 10:01:41;;;;;;;11.20;8.15;;;14.50;95.30;;;;;;4936345;29;20051;-88
2022/05/02 10:04:32;;;;;;;11.00;7.32;;;14.50;95.60;;;;;;4934042;29;20127;-88
2022/05/02 10:07:09;;;;;;;9.90;7.60;;;14.50;94.70;;;;;;4951067;28;20043;-87
2022/05/02 10:09:53;;;;;;;9.75;7.32;;;14.50;94.70;;;;;;4949434;28;20302;-87
2022/05/02 10:12:48;;;;;;;13.50;7.10;;;14.60;92.50;;;;;;4950651;29;20075;-86
2022/05/02 10:15:40;;;;;;;10.27;6.70;;;14.70;92.40;;;;;;4949990;29;20604;-84
2022/05/02 10:18:15;;;;;;;;;;;14.80;90.70;;;;;;4941740;29;20399;-85
2022/05/02 10:21:07;;;;;;;9.23;6.95;;;14.80;90.00;;;;;;4951268;28;19918;-87
2022/05/02 10:23:58;;;;;;;10.93;7.13;;;14.80;90.60;;;;;;4945151;28;20050;-90
2022/05/02 10:26:36;;;;;;;11.17;6.90;;;14.80;88.80;;;;;;4934476;29;20043;-85
2022/05/02 10:29:33;;;;;;;9.43;6.18;;;14.90;88.00;;;;;;4951421;28;20063;-85
2022/05/02 10:32:10;;;;;;;12.32;6.93;;;14.90;90.60;;;;;;4965299;28;20055;-87
2022/05/02 10:34:37;;;;;;;8.60;5.70;;;14.90;89.40;;;;;;4934069;28;20087;-85
2022/05/02 10:37:07;;;;;;;9.50;5.90;;;15.00;91.20;;;;;;4963285;28;20054;-87
2022/05/02 10:39:48;;;;;;;9.75;6.03;;;15.10;91.20;;;;;;4947555;29;20043;-87
2022/05/02 10:42:18;;;;;;;12.05;7.38;;;15.20;90.60;;;;;;4935111;29;20043;-87
2022/05/02 10:44:57;;;;;;;10.90;7.80;;;15.30;90.00;;;;;;4933382;29;20039;-86
2022/05/02 10:47:26;;;;;;;10.70;7.65;;;15.30;88.40;;;;;;4950340;28;20058;-91
2022/05/02 10:49:57;;;;;;;11.05;7.93;;;15.30;88.10;;;;;;4949727;29;20479;-87
2022/05/02 10:52:46;;;;;;;9.88;7.43;;;15.30;88.40;;;;;;4949452;29;20090;-87
2022/05/02 10:55:35;;;;;;;11.65;8.00;;;15.30;86.00;;;;;;4949815;28;20075;-90
2022/05/02 10:58:04;;;;;;;12.20;7.28;;;15.30;88.20;;;;;;4946744;28;20039;-87
2022/05/02 11:00:31;;;;;;;10.45;7.80;;;15.40;88.30;;;;;;4962829;28;20058;-89
2022/05/02 11:03:34;;;;;;;12.45;7.95;;;15.40;87.20;;;;;;4958830;28;20110;-93
2022/05/02 11:06:10;;;;;;;10.10;6.63;;;15.40;85.30;;;;;;4962293;28;20396;-93
2022/05/02 11:08:49;;;;;;;10.65;6.75;;;15.40;88.10;;;;;;4953770;29;20047;-94
2022/05/02 11:11:30;;;;;;;10.77;7.00;;;15.30;87.20;;;;;;4944420;29;20048;-94
2022/05/02 11:14:25;;;;;;;9.75;7.47;;;15.20;86.40;;;;;;5043303;23;20063;-95
2022/05/02 11:16:53;;;;;;;10.15;7.82;;;15.30;87.40;;;;;;5213211;23;20070;-94
2022/05/02 11:22:33;;;;;;;11.10;6.60;;;15.50;84.40;;;;;;4960368;28;20083;-95
2022/05/02 11:25:17;;;;;;;11.07;6.63;;;15.70;87.30;;;;;;4955969;29;20078;-90
2022/05/02 11:28:05;;;;;;;12.07;6.82;;;15.70;83.70;;;;;;4960286;29;20039;-92
2022/05/02 11:30:42;;;;;;;10.15;6.90;;;15.80;80.90;;;;;;4936217;29;20042;-94
2022/05/02 11:36:00;;;;;;;10.75;6.18;;;16.20;80.30;;;;;;4980369;23;20063;-96
2022/05/02 11:38:49;;;;;;;8.77;6.13;;;16.30;81.30;;;;;;4967762;29;20046;-96
2022/05/02 11:41:21;;;;;;;10.25;5.60;;;16.30;76.90;;;;;;4941596;29;20047;-95
2022/05/02 11:43:48;;;;;;;11.30;6.20;;;16.40;78.90;;;;;;4953954;29;20054;-94
2022/05/02 11:46:22;;;;;;;11.40;6.55;;;16.50;77.30;;;;;;4957744;29;20444;-94
2022/05/02 11:49:17;;;;;;;10.20;5.90;;;16.50;76.50;;;;;;4939288;29;20043;-95
2022/05/02 11:51:50;;;;;;;12.07;5.97;;;16.80;77.60;;;;;;4957102;29;20047;-91
2022/05/02 11:54:32;;;;;;;9.90;6.07;;;16.80;77.80;;;;;;4968317;29;20039;-93
2022/05/02 11:57:38;;;;;;;9.05;5.82;;;16.80;74.50;;;;;;4963929;28;20065;-95
2022/05/02 12:00:11;;;;;;;9.18;6.20;;;16.90;76.40;;;;;;4837546;29;20065;-95
2022/05/02 12:03:09;;;;;;;9.85;6.53;;;16.90;74.40;;;;;;4836501;29;20045;-96
2022/05/02 12:05:44;;;;;;;8.85;6.40;;;16.90;73.20;;;;;;4941010;23;20059;-95
2022/05/02 12:08:21;;;;;;;11.13;6.10;;;16.90;72.20;;;;;;4938938;29;20051;-93
2022/05/02 12:10:47;;;;;;;9.30;5.80;;;16.90;73.10;;;;;;4951495;29;20094;-96
2022/05/02 12:13:19;;;;;;;9.82;5.80;;;17.00;74.00;;;;;;4964419;28;20085;-96
2022/05/02 12:15:59;;;;;;;10.63;5.93;;;17.00;73.20;;;;;;4966789;29;20039;-96
2022/05/02 12:18:57;;;;;;;9.25;6.05;;;17.00;72.50;;;;;;5064620;23;20055;-95
2022/05/02 12:21:41;;;;;;;9.43;6.00;;;17.10;73.60;;;;;;4948366;29;20483;-94
2022/05/02 12:24:09;;;;;;;8.85;6.10;;;17.10;73.10;;;;;;4962729;28;20043;-93
2022/05/02 12:26:43;;;;;;;8.80;5.93;;;17.00;72.90;;;;;;4967319;28;20126;-94
2022/05/02 12:29:19;;;;;;;8.77;5.90;;;17.00;71.60;;;;;;5244190;23;20070;-94
2022/05/02 12:34:17;;;;;;;8.43;5.72;;;17.00;72.10;;;;;;4927292;29;20052;-94
2022/05/02 12:36:51;;;;;;;9.43;6.00;;;16.90;70.90;;;;;;4902817;29;20408;-95
2022/05/02 12:39:25;;;;;;;11.05;5.70;;;17.00;71.10;;;;;;4918361;29;20087;-92
2022/05/02 12:41:58;;;;;;;9.95;6.00;;;17.00;69.20;;;;;;4902768;29;20044;-94
2022/05/02 12:44:37;;;;;;;9.13;5.63;;;17.10;70.70;;;;;;4911367;29;20048;-94
2022/05/02 12:47:07;;;;;;;10.90;5.25;;;17.10;68.90;;;;;;4921909;29;20075;-91
2022/05/02 12:49:41;;;;;;;9.32;5.28;;;17.10;68.10;;;;;;4917325;29;20401;-93
2022/05/02 12:52:07;;;;;;;9.15;5.60;;;17.00;67.90;;;;;;4921159;29;20040;-91
2022/05/02 12:54:33;;;;;;;9.50;5.38;;;17.00;67.20;;;;;;4901696;29;20052;-92
2022/05/02 13:02:40;;;;;;;8.43;5.00;;;17.00;66.20;;;;;;4918017;29;20131;-93
2022/05/02 13:05:10;;;;;;;8.13;5.20;;;16.80;67.80;;;;;;4898942;29;20044;-89
2022/05/02 13:07:47;;;;;;;8.43;4.72;;;16.80;69.10;;;;;;4897344;29;20056;-93
2022/05/02 13:10:27;;;;;;;9.18;5.40;;;16.80;69.00;;;;;;4881795;29;20052;-90
2022/05/02 13:12:58;;;;;;;8.50;5.18;;;16.80;66.70;;;;;;4926185;29;20160;-90
2022/05/02 13:15:26;;;;;;;9.35;6.10;;;16.80;66.10;;;;;;4898541;29;20063;-93
2022/05/02 13:17:57;;;;;;;10.05;5.65;;;16.80;65.70;;;;;;4911885;29;20056;-92
2022/05/02 13:20:25;;;;;;;;;;;16.70;66.70;;;;;;4907816;29;20048;-89
2022/05/02 13:23:07;;;;;;;8.55;5.32;;;16.70;68.90;;;;;;4915879;29;19923;-89
2022/05/02 13:25:51;;;;;;;8.82;5.15;;;16.80;67.70;;;;;;4895397;29;20074;-89
2022/05/02 13:28:46;;;;;;;8.80;5.22;;;16.90;66.10;;;;;;4926539;29;20071;-90
2022/05/02 13:31:24;;;;;;;9.05;5.80;;;17.00;66.80;;;;;;4907129;29;20056;-89
2022/05/02 13:33:51;;;;;;;9.45;5.43;;;17.10;67.90;;;;;;4907305;29;20044;-87
2022/05/02 13:36:17;;;;;;;9.00;5.78;;;17.20;67.60;;;;;;4897428;29;20421;-87
2022/05/02 13:39:00;;;;;;;9.38;5.70;;;17.20;66.60;;;;;;4911809;29;20071;-88
2022/05/02 13:41:32;;;;;;;9.23;6.30;;;17.20;65.80;;;;;;4897471;29;20044;-88
2022/05/02 13:44:06;;;;;;;12.48;5.88;;;17.30;66.90;;;;;;4897617;29;20048;-88
2022/05/02 13:46:50;;;;;;;9.02;6.00;;;17.20;65.90;;;;;;4896398;29;20051;-88
2022/05/02 13:49:22;;;;;;;10.43;6.30;;;17.10;66.90;;;;;;4897073;29;20044;-87
2022/05/02 13:52:08;;;;;;;9.77;5.78;;;17.10;66.20;;;;;;4896320;29;20056;-86
2022/05/02 13:54:35;;;;;;;10.23;6.43;;;17.00;67.10;;;;;;4908492;29;20044;-87
2022/05/02 13:57:13;;;;;;;9.98;6.53;;;17.10;67.50;;;;;;4896306;29;20728;-88
2022/05/02 13:59:58;;;;;;;10.55;6.72;;;17.10;69.10;;;;;;4896902;29;20044;-88
2022/05/02 14:02:35;;;;;;;9.85;6.35;;;17.20;67.60;;;;;;4897293;29;20130;-90
2022/05/02 14:05:12;;;;;;;9.90;6.80;;;17.20;68.70;;;;;;4914257;29;20182;-88